Date,TemperatureHighF,TemperatureAvgF,TemperatureLowF,DewpointHighF,DewpointAvgF,DewpointLowF,HumidityHigh,HumidityAvg,HumidityLow,PressureMaxIn,PressureMinIn,WindSpeedMaxMPH,WindSpeedAvgMPH,GustSpeedMaxMPH,PrecipitationSumIn
2013-2-1,31.2,25.6,21.2,24.0,20.8,17.0,90,82,72,30.51,30.36,17,2,19,0.01
2013-2-2,37.7,23.7,11.0,20.0,15.3,7.0,87,72,47,30.68,30.51,5,1,6,0.05
2013-2-3,35.5,24.1,16.2,19.0,13.8,10.0,83,66,43,30.55,30.24,11,1,20,0.01
2013-2-4,36.0,23.3,10.3,20.0,12.8,6.0,85,66,45,30.37,30.27,5,1,15,0.00
2013-2-5,43.6,26.5,13.0,20.0,14.3,7.0,78,62,38,30.39,30.12,4,1,7,0.00
2013-2-6,37.8,27.9,20.1,28.0,21.1,14.0,93,76,56,30.21,30.00,7,1,13,0.00
2013-2-7,39.2,24.6,14.1,20.0,13.4,5.0,91,66,26,30.37,30.20,6,2,8,0.01
2013-2-8,40.7,27.8,14.1,25.0,15.0,5.0,79,60,39,30.21,29.77,20,3,27,0.00
2013-2-9,30.5,22.9,14.3,23.0,18.3,9.0,93,83,69,29.83,29.58,10,2,18,0.11
2013-2-10,28.4,17.6,11.0,13.0,9.7,6.0,85,72,51,30.14,29.84,5,1,8,0.01
2013-2-11,24.1,15.2,8.2,15.0,9.6,4.0,86,79,60,30.36,30.11,13,3,18,0.00
2013-2-12,26.4,13.8,3.5,8.0,4.8,-2.0,92,68,45,30.55,30.37,7,0,11,0.01
2013-2-13,31.2,21.7,14.4,18.0,13.3,9.0,82,70,57,30.56,30.35,4,0,9,0.00
2013-2-14,29.7,23.2,19.1,21.0,15.6,11.0,96,73,58,30.44,30.30,15,3,20,0.00
2013-2-15,28.8,21.3,15.3,16.0,12.1,7.0,83,68,53,30.65,30.44,16,3,21,0.00
2013-2-16,37.5,22.9,9.2,17.0,10.4,4.0,79,60,42,30.68,30.35,8,1,11,0.00
2013-2-17,40.8,27.1,16.4,21.0,11.4,5.0,87,55,29,30.34,29.80,23,4,25,0.00
2013-2-18,28.2,18.3,7.8,16.0,6.9,1.0,87,62,42,30.33,29.95,10,2,14,0.00
2013-2-19,39.3,21.6,4.5,11.0,3.4,-4.0,69,48,25,30.34,29.91,5,1,6,0.00
2013-2-20,36.6,26.1,18.1,23.0,12.3,3.0,93,58,39,29.91,29.56,11,2,17,0.00
2013-2-21,27.2,22.6,18.5,21.0,16.9,12.0,92,79,63,30.02,29.66,15,4,18,0.03
2013-2-22,25.6,17.2,8.9,16.0,10.0,2.0,90,75,49,30.28,30.02,14,3,17,0.06
2013-2-23,31.4,16.5,4.1,19.0,10.2,-1.0,92,77,54,30.28,29.93,11,1,16,0.00
2013-2-24,22.2,16.6,10.9,17.0,10.2,-99.9,91,79,66,30.32,29.87,24,-4,28,0.06
2013-2-25,29.1,16.1,2.4,13.0,5.8,-2.0,82,65,43,30.47,30.19,6,1,9,0.01
2013-2-26,21.2,16.7,9.4,15.0,10.9,5.0,89,78,63,30.44,30.07,13,3,22,0.02
2013-2-27,27.1,14.2,2.8,10.0,3.8,-2.0,84,65,37,30.65,30.44,13,2,14,0.02
2013-2-28,30.3,16.1,1.8,18.0,3.2,-99.9,89,62,38,30.76,30.65,12,-19,15,0.00